OOMS/MCT METAR and TAF weather

Enter ICAO airport designator
Station Type Date Time Source
OOMS METAR 2019/12/08 18:50 UTC NOAA

OOMS 081850Z 31003KT CAVOK 22/19 Q1017 NOSIG


Station Type Date Time Source
OOMS Decoded METAR 2019/12/08 18:50 UTC NOAA

Seeb, International Airport, Oman (OOMS) 23-35N 058-17E 17M
Dec 08, 2019 - 01:50 PM EST / 2019.12.08 1850 UTC
Wind: from the NW (310 degrees) at 3 MPH (3 KT):0
Visibility: greater than 7 mile(s):0
Temperature: 71 F (22 C)
Dew Point: 66 F (19 C)
Relative Humidity: 83%
Pressure (altimeter): 30.03 in. Hg (1017 hPa)
ob: OOMS 081850Z 31003KT CAVOK 22/19 Q1017 NOSIG
cycle: 19

Station Type Date Time Source
OOMS TAF 2019/12/08 18:06 UTC NOAA

TAF TAF OOMS 081700Z 0818/0924 VRB02KT 8000 NSC PROB30
TEMPO 0818/0906 -RA BKN040
BECMG 0906/0908 09012KT
BECMG 0919/0921 VRB02KT

Example: see airport list